createdAt,value
2023-03-18T00:03:38.793Z,1.57
2023-03-18T00:08:42.919Z,1.60
2023-03-18T00:13:48.082Z,2.20
2023-03-18T00:18:51.859Z,1.70
2023-03-18T00:23:56.657Z,2.05
2023-03-18T00:29:01.431Z,1.70
2023-03-18T00:34:04.914Z,1.77
2023-03-18T00:39:09.488Z,1.87
2023-03-18T00:44:15.717Z,2.00
2023-03-18T00:49:19.950Z,1.80
2023-03-18T00:54:24.971Z,1.83
2023-03-18T00:59:29.763Z,1.77
2023-03-18T01:04:33.788Z,1.83
2023-03-18T01:09:37.320Z,1.77
2023-03-18T01:14:42.122Z,1.67
2023-03-18T01:19:45.475Z,1.90
2023-03-18T01:24:49.257Z,1.50
2023-03-18T01:29:56.527Z,1.50
2023-03-18T01:35:00.976Z,1.70
2023-03-18T01:40:05.380Z,1.67
2023-03-18T01:45:19.531Z,1.87
2023-03-18T01:50:29.410Z,1.73
2023-03-18T01:55:34.135Z,1.63
2023-03-18T02:00:43.131Z,1.60
2023-03-18T02:05:46.953Z,1.60
2023-03-18T02:10:51.687Z,1.80
2023-03-18T02:16:03.430Z,1.60
2023-03-18T02:21:21.827Z,1.40
2023-03-18T02:26:34.913Z,1.63
2023-03-18T02:31:43.737Z,1.73
2023-03-18T02:36:47.911Z,1.80
2023-03-18T02:41:51.548Z,2.10
2023-03-18T02:47:00.283Z,1.60
2023-03-18T02:52:03.640Z,1.67
2023-03-18T02:57:07.529Z,1.53
2023-03-18T03:02:13.313Z,1.60
2023-03-18T03:07:16.797Z,1.73
2023-03-18T03:12:24.775Z,1.77
2023-03-18T03:17:33.886Z,2.03
2023-03-18T03:22:37.440Z,1.70
2023-03-18T03:27:41.235Z,2.13
2023-03-18T03:32:46.668Z,1.80
2023-03-18T03:37:50.177Z,1.90
2023-03-18T03:42:53.636Z,1.90
2023-03-18T03:47:58.416Z,1.80
2023-03-18T03:53:04.198Z,2.10
2023-03-18T03:58:07.946Z,1.77
2023-03-18T04:03:13.536Z,1.80
2023-03-18T04:08:18.562Z,1.90
2023-03-18T04:13:21.901Z,2.00
2023-03-18T04:18:27.260Z,1.70
2023-03-18T04:23:33.187Z,1.87
2023-03-18T04:28:36.751Z,1.80
2023-03-18T04:33:44.871Z,1.63
2023-03-18T04:38:48.598Z,2.03
2023-03-18T04:43:52.371Z,2.13
2023-03-18T04:48:58.464Z,1.97
2023-03-18T04:54:02.474Z,1.80
2023-03-18T04:59:08.255Z,1.77
2023-03-18T05:04:13.691Z,1.87
2023-03-18T05:09:24.146Z,1.90
2023-03-18T05:14:29.132Z,2.03
2023-03-18T05:19:34.792Z,2.17
2023-03-18T05:24:47.270Z,1.67
2023-03-18T05:29:51.846Z,1.83
2023-03-18T05:35:02.199Z,2.30
2023-03-18T05:40:11.666Z,1.77
2023-03-18T05:45:17.710Z,2.17
2023-03-18T05:50:34.074Z,1.93
2023-03-18T05:55:41.479Z,2.10
2023-03-18T06:00:45.819Z,2.00
2023-03-18T06:05:50.929Z,2.40
2023-03-18T06:10:54.423Z,1.90
2023-03-18T06:15:59.101Z,1.97
2023-03-18T06:21:09.159Z,2.40
2023-03-18T06:26:13.241Z,2.47
2023-03-18T06:31:23.416Z,2.07
2023-03-18T06:36:28.530Z,2.20
2023-03-18T06:41:31.913Z,2.07
2023-03-18T06:46:47.774Z,2.30
2023-03-18T06:51:54.536Z,2.07
2023-03-18T06:56:58.236Z,1.93
2023-03-18T07:02:02.236Z,2.27
2023-03-18T07:07:09.566Z,2.30
2023-03-18T07:12:15.108Z,2.37
2023-03-18T07:17:19.933Z,2.50
2023-03-18T07:22:24.813Z,1.80
2023-03-18T07:27:29.015Z,2.37
2023-03-18T07:32:32.556Z,1.97
2023-03-18T07:37:40.845Z,2.47
2023-03-18T07:42:44.501Z,2.00
2023-03-18T07:47:48.312Z,2.57
2023-03-18T07:52:53.260Z,2.00
2023-03-18T07:57:56.613Z,2.40
2023-03-18T08:03:00.534Z,2.13
2023-03-18T08:08:05.537Z,2.63
2023-03-18T08:13:09.252Z,2.25
2023-03-18T08:18:12.649Z,2.30
2023-03-18T08:23:17.664Z,2.47
2023-03-18T08:28:21.362Z,2.63
2023-03-18T08:33:25.154Z,2.83
2023-03-18T08:38:30.000Z,3.00
2023-03-18T08:43:33.275Z,2.47
2023-03-18T08:48:36.750Z,2.97
2023-03-18T08:53:41.485Z,2.47
2023-03-18T08:58:46.148Z,2.35
2023-03-18T09:03:49.837Z,1.80
2023-03-18T09:08:54.602Z,1.90
2023-03-18T09:13:57.906Z,2.47
2023-03-18T09:19:01.493Z,2.90
2023-03-18T09:24:07.592Z,2.47
2023-03-18T09:29:11.342Z,2.38
2023-03-18T09:34:14.709Z,1.85
2023-03-18T09:39:20.222Z,2.40
2023-03-18T09:44:26.607Z,2.70
2023-03-18T09:49:44.057Z,2.85
2023-03-18T09:54:55.394Z,3.50
2023-03-18T10:00:09.254Z,3.25
2023-03-18T10:05:18.933Z,2.70
2023-03-18T10:10:30.667Z,2.90
2023-03-18T10:15:38.227Z,2.78
2023-03-18T10:20:53.876Z,3.28
2023-03-18T10:26:06.020Z,2.67
2023-03-18T10:31:25.598Z,1.92
2023-03-18T10:36:33.240Z,2.10
2023-03-18T10:41:39.648Z,2.35
2023-03-18T10:46:45.045Z,2.20
2023-03-18T10:51:54.824Z,2.90
2023-03-18T10:56:59.839Z,2.40
2023-03-18T11:02:07.591Z,2.75
2023-03-18T11:07:18.800Z,2.55
2023-03-18T11:12:28.562Z,2.90
2023-03-18T11:17:35.618Z,2.70
2023-03-18T11:22:45.833Z,3.08
2023-03-18T11:27:52.346Z,2.42
2023-03-18T11:32:58.879Z,2.45
2023-03-18T11:38:05.306Z,2.35
2023-03-18T11:43:19.957Z,2.53
2023-03-18T11:48:36.697Z,2.75
2023-03-18T11:54:00.290Z,2.90
2023-03-18T11:59:23.356Z,3.20
2023-03-18T12:04:46.135Z,2.95
2023-03-18T12:10:03.904Z,2.25
2023-03-18T12:15:23.398Z,2.20
2023-03-18T12:20:51.217Z,2.03
2023-03-18T12:26:11.112Z,3.22
2023-03-18T12:31:37.051Z,2.85
2023-03-18T12:36:56.928Z,3.15
2023-03-18T12:42:09.243Z,3.20
2023-03-18T12:47:19.189Z,3.20
2023-03-18T12:52:30.281Z,2.85
2023-03-18T12:57:39.790Z,2.83
2023-03-18T13:02:50.930Z,2.45
2023-03-18T13:08:12.133Z,2.58
2023-03-18T13:13:16.397Z,2.97
2023-03-18T13:18:28.227Z,3.15
2023-03-18T13:24:05.290Z,2.58
2023-03-18T13:29:19.583Z,2.38
2023-03-18T13:34:56.483Z,2.50
2023-03-18T13:40:34.162Z,2.22
2023-03-18T13:45:41.397Z,2.80
2023-03-18T13:50:48.425Z,2.40
2023-03-18T13:56:01.482Z,2.58
2023-03-18T14:01:33.550Z,2.47
2023-03-18T14:06:56.627Z,2.50
2023-03-18T14:12:17.074Z,2.35
2023-03-18T14:17:28.069Z,2.20
2023-03-18T14:22:36.904Z,2.20
2023-03-18T14:27:48.689Z,2.72
2023-03-18T14:32:59.720Z,2.65
2023-03-18T14:38:10.951Z,2.60
2023-03-18T14:43:21.362Z,2.60
2023-03-18T14:48:29.404Z,2.30
2023-03-18T14:53:36.734Z,2.28
2023-03-18T14:58:40.133Z,2.28
2023-03-18T15:03:46.814Z,2.33
2023-03-18T15:08:54.501Z,2.20
2023-03-18T15:13:59.990Z,2.92
2023-03-18T15:19:05.306Z,2.40
2023-03-18T15:24:10.761Z,2.80
2023-03-18T15:29:29.609Z,2.80
2023-03-18T15:34:33.947Z,2.63
2023-03-18T15:39:41.024Z,3.15
2023-03-18T15:44:46.598Z,2.53
2023-03-18T15:49:57.025Z,2.40
2023-03-18T15:55:02.592Z,2.90
2023-03-18T16:00:08.837Z,2.53
2023-03-18T16:05:19.425Z,1.95
2023-03-18T16:10:26.402Z,3.03
2023-03-18T16:15:31.987Z,2.55
2023-03-18T16:20:36.204Z,2.33
2023-03-18T16:25:42.152Z,3.05
2023-03-18T16:30:46.506Z,2.70
2023-03-18T16:35:56.814Z,2.55
2023-03-18T16:41:02.143Z,2.58
2023-03-18T16:46:06.181Z,2.67
2023-03-18T16:51:09.773Z,2.60
2023-03-18T16:56:19.173Z,2.50
2023-03-18T17:01:25.040Z,1.95
2023-03-18T17:06:29.607Z,2.53
2023-03-18T17:11:36.282Z,2.55
2023-03-18T17:16:43.742Z,2.60
2023-03-18T17:21:48.661Z,3.03
2023-03-18T17:26:55.994Z,2.50
2023-03-18T17:32:00.368Z,2.13
2023-03-18T17:37:05.969Z,2.47
2023-03-18T17:42:29.797Z,3.25
2023-03-18T17:47:40.344Z,2.67
2023-03-18T17:52:56.218Z,2.80
2023-03-18T17:58:04.933Z,2.80
2023-03-18T18:03:21.162Z,2.65
2023-03-18T18:08:31.294Z,2.65
2023-03-18T18:13:38.732Z,2.88
2023-03-18T18:18:43.194Z,2.78
2023-03-18T18:23:48.067Z,2.90
2023-03-18T18:28:57.680Z,2.38
2023-03-18T18:34:02.181Z,2.30
2023-03-18T18:39:07.720Z,2.22
2023-03-18T18:44:18.633Z,2.83
2023-03-18T18:49:28.874Z,2.60
2023-03-18T18:54:36.626Z,2.08
2023-03-18T18:59:43.177Z,2.80
2023-03-18T19:04:50.839Z,2.22
2023-03-18T19:09:57.898Z,2.42
2023-03-18T19:15:09.714Z,2.17
2023-03-18T19:20:29.948Z,2.65
2023-03-18T19:25:35.747Z,2.45
2023-03-18T19:30:47.455Z,2.45
2023-03-18T19:35:53.909Z,2.38
2023-03-18T19:41:03.480Z,2.67
2023-03-18T19:46:17.066Z,2.65
2023-03-18T19:51:24.424Z,2.95
2023-03-18T19:56:34.324Z,2.95
2023-03-18T20:01:44.579Z,2.50
2023-03-18T20:06:53.330Z,2.83
2023-03-18T20:12:06.132Z,2.47
2023-03-18T20:17:35.824Z,2.78
2023-03-18T20:22:53.577Z,2.55
2023-03-18T20:27:59.771Z,2.67
2023-03-18T20:33:08.266Z,3.10
2023-03-18T20:38:22.120Z,2.47
2023-03-18T20:43:28.873Z,2.95
2023-03-18T20:48:38.288Z,3.58
2023-03-18T20:53:43.822Z,3.17
2023-03-18T20:58:49.612Z,3.47
2023-03-18T21:04:00.624Z,2.92
2023-03-18T21:09:07.627Z,3.10
2023-03-18T21:14:16.376Z,3.03
2023-03-18T21:19:22.953Z,2.80
2023-03-18T21:24:29.233Z,2.65
2023-03-18T21:29:32.951Z,3.13
2023-03-18T21:34:39.405Z,2.75
2023-03-18T21:39:44.166Z,3.25
2023-03-18T21:44:48.746Z,3.08
2023-03-18T21:49:54.045Z,3.10
2023-03-18T21:54:58.204Z,3.28
2023-03-18T22:00:03.653Z,4.32
2023-03-18T22:05:18.959Z,3.10
2023-03-18T22:10:24.108Z,4.00
2023-03-18T22:15:36.136Z,3.78
2023-03-18T22:20:41.801Z,3.85
2023-03-18T22:25:47.232Z,3.67
2023-03-18T22:30:52.499Z,3.80
2023-03-18T22:35:57.628Z,4.22
2023-03-18T22:41:02.292Z,4.00
2023-03-18T22:46:08.097Z,3.90
2023-03-18T22:51:24.437Z,4.38
2023-03-18T22:56:27.785Z,4.50
2023-03-18T23:01:32.161Z,4.15
2023-03-18T23:06:37.160Z,3.95
2023-03-18T23:11:40.572Z,4.10
2023-03-18T23:16:44.243Z,4.63
2023-03-18T23:21:49.118Z,4.15
2023-03-18T23:26:52.474Z,3.90
2023-03-18T23:31:55.794Z,3.85
2023-03-18T23:37:02.633Z,3.95
2023-03-18T23:42:06.728Z,4.65
2023-03-18T23:47:11.506Z,3.75
2023-03-18T23:52:16.864Z,3.85
2023-03-18T23:57:20.306Z,3.70
